sensor_id;sensor_type;location;lat;lon;timestamp;P1;durP1;ratioP1;P2;durP2;ratioP2
34248;SDS011;20508;50.834;3.160;2022-10-31T00:00:43;2.40;;;2.20;;
34248;SDS011;20508;50.834;3.160;2022-10-31T00:03:10;2.17;;;1.98;;
34248;SDS011;20508;50.834;3.160;2022-10-31T00:05:39;3.28;;;2.22;;
34248;SDS011;20508;50.834;3.160;2022-10-31T00:08:06;2.05;;;1.80;;
34248;SDS011;20508;50.834;3.160;2022-10-31T00:10:33;2.13;;;1.90;;
34248;SDS011;20508;50.834;3.160;2022-10-31T00:13:02;2.42;;;1.85;;
34248;SDS011;20508;50.834;3.160;2022-10-31T00:15:28;2.90;;;2.20;;
34248;SDS011;20508;50.834;3.160;2022-10-31T00:17:54;3.05;;;1.90;;
34248;SDS011;20508;50.834;3.160;2022-10-31T00:20:20;2.58;;;1.98;;
34248;SDS011;20508;50.834;3.160;2022-10-31T00:22:46;2.60;;;1.80;;
34248;SDS011;20508;50.834;3.160;2022-10-31T00:25:12;2.30;;;1.75;;
34248;SDS011;20508;50.834;3.160;2022-10-31T00:27:38;2.60;;;2.08;;
34248;SDS011;20508;50.834;3.160;2022-10-31T00:30:04;2.28;;;1.95;;
34248;SDS011;20508;50.834;3.160;2022-10-31T00:32:31;2.40;;;1.67;;
34248;SDS011;20508;50.834;3.160;2022-10-31T00:34:57;2.80;;;1.83;;
34248;SDS011;20508;50.834;3.160;2022-10-31T00:37:23;3.33;;;1.98;;
34248;SDS011;20508;50.834;3.160;2022-10-31T00:39:49;2.20;;;2.00;;
34248;SDS011;20508;50.834;3.160;2022-10-31T00:42:15;2.22;;;2.00;;
34248;SDS011;20508;50.834;3.160;2022-10-31T00:44:41;1.80;;;1.70;;
34248;SDS011;20508;50.834;3.160;2022-10-31T00:47:07;2.47;;;2.00;;
34248;SDS011;20508;50.834;3.160;2022-10-31T00:49:33;2.35;;;1.80;;
34248;SDS011;20508;50.834;3.160;2022-10-31T00:51:59;2.28;;;1.70;;
34248;SDS011;20508;50.834;3.160;2022-10-31T00:54:26;4.35;;;1.88;;
34248;SDS011;20508;50.834;3.160;2022-10-31T00:56:52;1.80;;;1.70;;
34248;SDS011;20508;50.834;3.160;2022-10-31T00:59:18;2.08;;;1.70;;
34248;SDS011;20508;50.834;3.160;2022-10-31T01:01:44;2.83;;;1.77;;
34248;SDS011;20508;50.834;3.160;2022-10-31T01:04:10;2.17;;;1.60;;
34248;SDS011;20508;50.834;3.160;2022-10-31T01:06:36;3.50;;;1.95;;
34248;SDS011;20508;50.834;3.160;2022-10-31T01:09:02;1.90;;;1.80;;
34248;SDS011;20508;50.834;3.160;2022-10-31T01:11:28;3.53;;;1.88;;
34248;SDS011;20508;50.834;3.160;2022-10-31T01:13:54;1.65;;;1.55;;
34248;SDS011;20508;50.834;3.160;2022-10-31T01:16:21;1.50;;;1.40;;
34248;SDS011;20508;50.834;3.160;2022-10-31T01:18:49;1.65;;;1.40;;
34248;SDS011;20508;50.834;3.160;2022-10-31T01:21:20;2.20;;;1.70;;
34248;SDS011;20508;50.834;3.160;2022-10-31T01:23:47;2.10;;;1.73;;
34248;SDS011;20508;50.834;3.160;2022-10-31T01:26:14;2.25;;;1.80;;
34248;SDS011;20508;50.834;3.160;2022-10-31T01:28:50;2.17;;;1.80;;
34248;SDS011;20508;50.834;3.160;2022-10-31T01:31:19;2.45;;;1.90;;
34248;SDS011;20508;50.834;3.160;2022-10-31T01:33:46;2.30;;;1.70;;
34248;SDS011;20508;50.834;3.160;2022-10-31T01:36:30;2.40;;;1.75;;
34248;SDS011;20508;50.834;3.160;2022-10-31T01:38:59;1.90;;;1.70;;
34248;SDS011;20508;50.834;3.160;2022-10-31T01:41:28;1.77;;;1.63;;
34248;SDS011;20508;50.834;3.160;2022-10-31T01:43:57;1.90;;;1.70;;
34248;SDS011;20508;50.834;3.160;2022-10-31T01:46:26;1.58;;;1.38;;
34248;SDS011;20508;50.834;3.160;2022-10-31T01:49:00;1.85;;;1.65;;
34248;SDS011;20508;50.834;3.160;2022-10-31T01:51:30;3.03;;;1.85;;
34248;SDS011;20508;50.834;3.160;2022-10-31T01:54:01;2.75;;;2.03;;
34248;SDS011;20508;50.834;3.160;2022-10-31T01:56:32;2.15;;;1.58;;
34248;SDS011;20508;50.834;3.160;2022-10-31T01:59:00;2.17;;;1.83;;
34248;SDS011;20508;50.834;3.160;2022-10-31T02:01:28;1.98;;;1.77;;
34248;SDS011;20508;50.834;3.160;2022-10-31T02:03:54;2.88;;;1.75;;
34248;SDS011;20508;50.834;3.160;2022-10-31T02:06:24;5.18;;;1.63;;
34248;SDS011;20508;50.834;3.160;2022-10-31T02:09:04;1.70;;;1.60;;
34248;SDS011;20508;50.834;3.160;2022-10-31T02:11:31;2.28;;;1.52;;
34248;SDS011;20508;50.834;3.160;2022-10-31T02:14:00;1.98;;;1.77;;
34248;SDS011;20508;50.834;3.160;2022-10-31T02:16:28;2.63;;;1.80;;
34248;SDS011;20508;50.834;3.160;2022-10-31T02:18:54;3.47;;;2.00;;
34248;SDS011;20508;50.834;3.160;2022-10-31T02:21:44;2.20;;;1.85;;
34248;SDS011;20508;50.834;3.160;2022-10-31T02:29:40;2.70;;;1.92;;
34248;SDS011;20508;50.834;3.160;2022-10-31T02:34:56;3.03;;;1.80;;
34248;SDS011;20508;50.834;3.160;2022-10-31T02:40:50;2.17;;;1.98;;
34248;SDS011;20508;50.834;3.160;2022-10-31T02:43:20;2.50;;;1.90;;
34248;SDS011;20508;50.834;3.160;2022-10-31T02:48:24;2.75;;;1.95;;
34248;SDS011;20508;50.834;3.160;2022-10-31T02:50:56;2.20;;;1.95;;
34248;SDS011;20508;50.834;3.160;2022-10-31T02:53:26;2.42;;;1.95;;
34248;SDS011;20508;50.834;3.160;2022-10-31T02:58:25;2.35;;;1.80;;
34248;SDS011;20508;50.834;3.160;2022-10-31T03:06:54;2.05;;;1.70;;
34248;SDS011;20508;50.834;3.160;2022-10-31T03:09:28;2.80;;;1.80;;
34248;SDS011;20508;50.834;3.160;2022-10-31T03:12:12;3.83;;;2.22;;
34248;SDS011;20508;50.834;3.160;2022-10-31T03:14:59;2.10;;;1.85;;
34248;SDS011;20508;50.834;3.160;2022-10-31T03:17:36;2.88;;;2.00;;
34248;SDS011;20508;50.834;3.160;2022-10-31T03:20:07;4.38;;;2.40;;
34248;SDS011;20508;50.834;3.160;2022-10-31T03:22:35;3.08;;;2.03;;
34248;SDS011;20508;50.834;3.160;2022-10-31T03:25:06;1.98;;;1.83;;
34248;SDS011;20508;50.834;3.160;2022-10-31T03:27:34;2.30;;;2.10;;
34248;SDS011;20508;50.834;3.160;2022-10-31T03:30:03;2.60;;;2.20;;
34248;SDS011;20508;50.834;3.160;2022-10-31T03:32:43;3.30;;;2.38;;
34248;SDS011;20508;50.834;3.160;2022-10-31T03:35:13;3.97;;;1.95;;
34248;SDS011;20508;50.834;3.160;2022-10-31T03:37:42;2.90;;;1.88;;
34248;SDS011;20508;50.834;3.160;2022-10-31T03:40:10;2.67;;;2.03;;
34248;SDS011;20508;50.834;3.160;2022-10-31T03:42:40;2.47;;;1.90;;
34248;SDS011;20508;50.834;3.160;2022-10-31T03:45:11;2.60;;;2.03;;
34248;SDS011;20508;50.834;3.160;2022-10-31T03:47:40;2.22;;;1.90;;
34248;SDS011;20508;50.834;3.160;2022-10-31T03:50:09;1.95;;;1.85;;
34248;SDS011;20508;50.834;3.160;2022-10-31T03:52:48;2.83;;;2.08;;
34248;SDS011;20508;50.834;3.160;2022-10-31T03:55:32;2.42;;;1.90;;
34248;SDS011;20508;50.834;3.160;2022-10-31T03:58:03;2.80;;;1.63;;
34248;SDS011;20508;50.834;3.160;2022-10-31T04:00:37;3.08;;;1.98;;
34248;SDS011;20508;50.834;3.160;2022-10-31T04:03:10;2.42;;;1.98;;
34248;SDS011;20508;50.834;3.160;2022-10-31T04:05:43;2.80;;;2.20;;
34248;SDS011;20508;50.834;3.160;2022-10-31T04:08:13;1.70;;;1.45;;
34248;SDS011;20508;50.834;3.160;2022-10-31T04:10:42;2.05;;;1.85;;
34248;SDS011;20508;50.834;3.160;2022-10-31T04:13:14;2.45;;;2.03;;
34248;SDS011;20508;50.834;3.160;2022-10-31T04:15:44;2.78;;;1.88;;
34248;SDS011;20508;50.834;3.160;2022-10-31T04:18:11;2.40;;;1.83;;
34248;SDS011;20508;50.834;3.160;2022-10-31T04:20:38;1.75;;;1.65;;
34248;SDS011;20508;50.834;3.160;2022-10-31T04:23:10;1.88;;;1.63;;
34248;SDS011;20508;50.834;3.160;2022-10-31T04:25:50;2.67;;;1.85;;
34248;SDS011;20508;50.834;3.160;2022-10-31T04:28:16;2.55;;;2.10;;
34248;SDS011;20508;50.834;3.160;2022-10-31T04:30:42;2.35;;;2.00;;
34248;SDS011;20508;50.834;3.160;2022-10-31T04:33:08;2.00;;;1.70;;
34248;SDS011;20508;50.834;3.160;2022-10-31T04:35:34;2.40;;;1.70;;
34248;SDS011;20508;50.834;3.160;2022-10-31T04:38:00;2.85;;;1.58;;
34248;SDS011;20508;50.834;3.160;2022-10-31T04:40:27;2.10;;;1.90;;
34248;SDS011;20508;50.834;3.160;2022-10-31T04:42:53;1.80;;;1.70;;
34248;SDS011;20508;50.834;3.160;2022-10-31T04:45:19;2.10;;;2.00;;
34248;SDS011;20508;50.834;3.160;2022-10-31T04:47:45;1.88;;;1.60;;
34248;SDS011;20508;50.834;3.160;2022-10-31T04:50:12;1.55;;;1.45;;
34248;SDS011;20508;50.834;3.160;2022-10-31T04:52:39;2.35;;;1.48;;
34248;SDS011;20508;50.834;3.160;2022-10-31T04:55:10;1.85;;;1.67;;
34248;SDS011;20508;50.834;3.160;2022-10-31T04:57:42;1.90;;;1.60;;
34248;SDS011;20508;50.834;3.160;2022-10-31T05:00:10;2.45;;;2.05;;
34248;SDS011;20508;50.834;3.160;2022-10-31T05:02:45;2.42;;;1.95;;
34248;SDS011;20508;50.834;3.160;2022-10-31T05:05:17;2.50;;;2.30;;
34248;SDS011;20508;50.834;3.160;2022-10-31T05:07:46;2.40;;;1.65;;
34248;SDS011;20508;50.834;3.160;2022-10-31T05:10:14;2.78;;;1.70;;
34248;SDS011;20508;50.834;3.160;2022-10-31T05:12:47;2.50;;;2.10;;
34248;SDS011;20508;50.834;3.160;2022-10-31T05:15:14;2.50;;;2.30;;
34248;SDS011;20508;50.834;3.160;2022-10-31T05:17:42;2.05;;;1.60;;
34248;SDS011;20508;50.834;3.160;2022-10-31T05:20:09;1.90;;;1.67;;
34248;SDS011;20508;50.834;3.160;2022-10-31T05:22:36;1.95;;;1.55;;
34248;SDS011;20508;50.834;3.160;2022-10-31T05:25:02;2.53;;;2.20;;
34248;SDS011;20508;50.834;3.160;2022-10-31T05:27:29;2.75;;;2.28;;
34248;SDS011;20508;50.834;3.160;2022-10-31T05:29:56;2.35;;;1.60;;
34248;SDS011;20508;50.834;3.160;2022-10-31T05:32:22;2.05;;;1.67;;
34248;SDS011;20508;50.834;3.160;2022-10-31T05:34:48;2.45;;;1.83;;
34248;SDS011;20508;50.834;3.160;2022-10-31T05:37:14;2.60;;;1.83;;
34248;SDS011;20508;50.834;3.160;2022-10-31T05:39:40;2.53;;;1.63;;
34248;SDS011;20508;50.834;3.160;2022-10-31T05:42:06;1.67;;;1.50;;
34248;SDS011;20508;50.834;3.160;2022-10-31T05:44:32;2.22;;;2.03;;
34248;SDS011;20508;50.834;3.160;2022-10-31T05:46:58;2.33;;;1.85;;
34248;SDS011;20508;50.834;3.160;2022-10-31T05:49:24;2.65;;;1.95;;
34248;SDS011;20508;50.834;3.160;2022-10-31T05:51:51;2.90;;;2.13;;
34248;SDS011;20508;50.834;3.160;2022-10-31T05:54:17;2.30;;;2.10;;
34248;SDS011;20508;50.834;3.160;2022-10-31T05:56:43;2.92;;;2.00;;
34248;SDS011;20508;50.834;3.160;2022-10-31T05:59:10;1.75;;;1.52;;
34248;SDS011;20508;50.834;3.160;2022-10-31T06:01:36;3.05;;;1.70;;
34248;SDS011;20508;50.834;3.160;2022-10-31T06:04:02;2.70;;;1.67;;
34248;SDS011;20508;50.834;3.160;2022-10-31T06:06:28;3.47;;;2.15;;
34248;SDS011;20508;50.834;3.160;2022-10-31T06:08:54;2.67;;;1.80;;
34248;SDS011;20508;50.834;3.160;2022-10-31T06:11:21;3.15;;;1.90;;
34248;SDS011;20508;50.834;3.160;2022-10-31T06:13:47;2.28;;;1.85;;
34248;SDS011;20508;50.834;3.160;2022-10-31T06:16:13;2.53;;;2.00;;
34248;SDS011;20508;50.834;3.160;2022-10-31T06:18:39;2.38;;;2.17;;
34248;SDS011;20508;50.834;3.160;2022-10-31T06:21:05;2.80;;;2.25;;
34248;SDS011;20508;50.834;3.160;2022-10-31T06:23:31;2.20;;;2.00;;
34248;SDS011;20508;50.834;3.160;2022-10-31T06:25:57;4.50;;;2.70;;
34248;SDS011;20508;50.834;3.160;2022-10-31T06:28:24;3.13;;;2.38;;
34248;SDS011;20508;50.834;3.160;2022-10-31T06:30:50;3.50;;;2.08;;
34248;SDS011;20508;50.834;3.160;2022-10-31T06:33:16;2.97;;;2.15;;
34248;SDS011;20508;50.834;3.160;2022-10-31T06:35:46;2.95;;;2.03;;
34248;SDS011;20508;50.834;3.160;2022-10-31T06:38:13;3.03;;;2.47;;
34248;SDS011;20508;50.834;3.160;2022-10-31T06:40:39;2.88;;;2.25;;
34248;SDS011;20508;50.834;3.160;2022-10-31T06:43:05;2.95;;;2.13;;
34248;SDS011;20508;50.834;3.160;2022-10-31T06:45:31;2.40;;;2.20;;
34248;SDS011;20508;50.834;3.160;2022-10-31T06:47:58;2.72;;;2.20;;
34248;SDS011;20508;50.834;3.160;2022-10-31T06:50:24;2.55;;;2.22;;
34248;SDS011;20508;50.834;3.160;2022-10-31T06:52:51;3.45;;;3.15;;
34248;SDS011;20508;50.834;3.160;2022-10-31T06:55:19;4.45;;;2.22;;
34248;SDS011;20508;50.834;3.160;2022-10-31T06:57:53;2.30;;;2.10;;
34248;SDS011;20508;50.834;3.160;2022-10-31T07:00:24;4.07;;;2.00;;
34248;SDS011;20508;50.834;3.160;2022-10-31T07:03:01;2.45;;;2.25;;
34248;SDS011;20508;50.834;3.160;2022-10-31T07:05:29;3.83;;;3.00;;
34248;SDS011;20508;50.834;3.160;2022-10-31T07:07:59;3.33;;;2.85;;
34248;SDS011;20508;50.834;3.160;2022-10-31T07:10:28;3.55;;;2.75;;
34248;SDS011;20508;50.834;3.160;2022-10-31T07:12:56;3.65;;;3.05;;
34248;SDS011;20508;50.834;3.160;2022-10-31T07:15:24;3.35;;;2.88;;
34248;SDS011;20508;50.834;3.160;2022-10-31T07:17:51;3.67;;;3.08;;
34248;SDS011;20508;50.834;3.160;2022-10-31T07:20:17;5.70;;;3.45;;
34248;SDS011;20508;50.834;3.160;2022-10-31T07:22:43;5.43;;;2.95;;
34248;SDS011;20508;50.834;3.160;2022-10-31T07:25:10;3.90;;;3.08;;
34248;SDS011;20508;50.834;3.160;2022-10-31T07:27:36;3.83;;;3.17;;
34248;SDS011;20508;50.834;3.160;2022-10-31T07:30:04;3.78;;;2.92;;
34248;SDS011;20508;50.834;3.160;2022-10-31T07:32:44;4.88;;;3.25;;
34248;SDS011;20508;50.834;3.160;2022-10-31T07:35:13;6.90;;;3.63;;
34248;SDS011;20508;50.834;3.160;2022-10-31T07:37:44;5.78;;;3.95;;
34248;SDS011;20508;50.834;3.160;2022-10-31T07:40:10;4.05;;;3.25;;
34248;SDS011;20508;50.834;3.160;2022-10-31T07:42:37;6.50;;;3.15;;
34248;SDS011;20508;50.834;3.160;2022-10-31T07:45:06;4.65;;;4.07;;
34248;SDS011;20508;50.834;3.160;2022-10-31T07:50:28;4.38;;;3.58;;
34248;SDS011;20508;50.834;3.160;2022-10-31T07:55:29;5.07;;;3.80;;
34248;SDS011;20508;50.834;3.160;2022-10-31T07:58:02;4.90;;;4.10;;
34248;SDS011;20508;50.834;3.160;2022-10-31T08:00:31;6.30;;;3.60;;
34248;SDS011;20508;50.834;3.160;2022-10-31T08:03:02;5.10;;;3.97;;
34248;SDS011;20508;50.834;3.160;2022-10-31T08:05:36;7.72;;;3.97;;
34248;SDS011;20508;50.834;3.160;2022-10-31T08:08:05;4.85;;;4.07;;
34248;SDS011;20508;50.834;3.160;2022-10-31T08:10:32;4.28;;;3.88;;
34248;SDS011;20508;50.834;3.160;2022-10-31T08:13:06;5.93;;;4.28;;
34248;SDS011;20508;50.834;3.160;2022-10-31T08:15:34;4.85;;;3.58;;
34248;SDS011;20508;50.834;3.160;2022-10-31T08:18:03;6.68;;;3.45;;
34248;SDS011;20508;50.834;3.160;2022-10-31T08:20:30;8.57;;;3.92;;
34248;SDS011;20508;50.834;3.160;2022-10-31T08:22:57;6.05;;;3.75;;
34248;SDS011;20508;50.834;3.160;2022-10-31T08:25:26;4.57;;;3.95;;
34248;SDS011;20508;50.834;3.160;2022-10-31T08:27:54;4.60;;;3.13;;
34248;SDS011;20508;50.834;3.160;2022-10-31T08:30:22;6.50;;;3.58;;
34248;SDS011;20508;50.834;3.160;2022-10-31T08:33:03;5.25;;;3.63;;
34248;SDS011;20508;50.834;3.160;2022-10-31T08:35:34;5.22;;;3.55;;
34248;SDS011;20508;50.834;3.160;2022-10-31T08:38:00;5.13;;;3.55;;
34248;SDS011;20508;50.834;3.160;2022-10-31T08:40:28;4.43;;;3.60;;
34248;SDS011;20508;50.834;3.160;2022-10-31T08:43:04;6.25;;;4.22;;
34248;SDS011;20508;50.834;3.160;2022-10-31T08:45:32;5.00;;;4.22;;
34248;SDS011;20508;50.834;3.160;2022-10-31T08:48:00;6.40;;;4.07;;
34248;SDS011;20508;50.834;3.160;2022-10-31T08:50:29;5.95;;;4.70;;
34248;SDS011;20508;50.834;3.160;2022-10-31T08:53:02;4.80;;;4.13;;
34248;SDS011;20508;50.834;3.160;2022-10-31T08:55:30;6.20;;;3.78;;
34248;SDS011;20508;50.834;3.160;2022-10-31T08:57:57;6.07;;;4.53;;
34248;SDS011;20508;50.834;3.160;2022-10-31T09:00:24;4.50;;;4.10;;
34248;SDS011;20508;50.834;3.160;2022-10-31T09:03:00;7.47;;;4.00;;
34248;SDS011;20508;50.834;3.160;2022-10-31T09:05:28;5.13;;;3.75;;
34248;SDS011;20508;50.834;3.160;2022-10-31T09:07:55;6.95;;;3.75;;
34248;SDS011;20508;50.834;3.160;2022-10-31T09:10:25;8.60;;;3.83;;
34248;SDS011;20508;50.834;3.160;2022-10-31T09:12:58;6.57;;;4.30;;
34248;SDS011;20508;50.834;3.160;2022-10-31T09:15:34;7.32;;;4.18;;
34248;SDS011;20508;50.834;3.160;2022-10-31T09:18:01;9.18;;;3.90;;
34248;SDS011;20508;50.834;3.160;2022-10-31T09:20:28;4.22;;;3.72;;
34248;SDS011;20508;50.834;3.160;2022-10-31T09:22:59;5.13;;;3.80;;
34248;SDS011;20508;50.834;3.160;2022-10-31T09:25:27;5.10;;;4.03;;
34248;SDS011;20508;50.834;3.160;2022-10-31T09:27:58;5.82;;;4.20;;
34248;SDS011;20508;50.834;3.160;2022-10-31T09:30:26;6.28;;;4.35;;
34248;SDS011;20508;50.834;3.160;2022-10-31T09:32:57;6.15;;;4.25;;
34248;SDS011;20508;50.834;3.160;2022-10-31T09:35:28;9.35;;;4.95;;
34248;SDS011;20508;50.834;3.160;2022-10-31T09:37:58;8.07;;;4.43;;
34248;SDS011;20508;50.834;3.160;2022-10-31T09:40:36;7.38;;;4.45;;
34248;SDS011;20508;50.834;3.160;2022-10-31T09:43:10;5.55;;;4.80;;
34248;SDS011;20508;50.834;3.160;2022-10-31T09:45:43;6.47;;;4.05;;
34248;SDS011;20508;50.834;3.160;2022-10-31T09:51:11;9.75;;;4.80;;
34248;SDS011;20508;50.834;3.160;2022-10-31T09:56:17;6.88;;;4.13;;
34248;SDS011;20508;50.834;3.160;2022-10-31T09:58:52;9.32;;;4.28;;
34248;SDS011;20508;50.834;3.160;2022-10-31T10:07:02;7.93;;;4.70;;
34248;SDS011;20508;50.834;3.160;2022-10-31T10:09:34;5.32;;;4.63;;
34248;SDS011;20508;50.834;3.160;2022-10-31T10:12:08;4.85;;;4.22;;
34248;SDS011;20508;50.834;3.160;2022-10-31T10:14:48;6.25;;;4.85;;
34248;SDS011;20508;50.834;3.160;2022-10-31T10:17:50;5.43;;;4.55;;
34248;SDS011;20508;50.834;3.160;2022-10-31T10:23:39;4.43;;;3.72;;
34248;SDS011;20508;50.834;3.160;2022-10-31T10:26:20;4.97;;;4.47;;
34248;SDS011;20508;50.834;3.160;2022-10-31T10:31:58;4.80;;;4.30;;
34248;SDS011;20508;50.834;3.160;2022-10-31T10:34:41;8.15;;;4.38;;
34248;SDS011;20508;50.834;3.160;2022-10-31T10:37:21;7.60;;;3.95;;
34248;SDS011;20508;50.834;3.160;2022-10-31T10:39:52;5.60;;;3.63;;
34248;SDS011;20508;50.834;3.160;2022-10-31T10:42:25;7.80;;;4.13;;
34248;SDS011;20508;50.834;3.160;2022-10-31T10:45:15;8.00;;;4.32;;
34248;SDS011;20508;50.834;3.160;2022-10-31T10:50:47;5.10;;;4.00;;
34248;SDS011;20508;50.834;3.160;2022-10-31T10:58:36;7.10;;;3.92;;
34248;SDS011;20508;50.834;3.160;2022-10-31T11:01:09;5.07;;;3.80;;
34248;SDS011;20508;50.834;3.160;2022-10-31T11:03:40;6.28;;;3.97;;
34248;SDS011;20508;50.834;3.160;2022-10-31T11:06:20;5.20;;;4.10;;
34248;SDS011;20508;50.834;3.160;2022-10-31T11:08:51;8.27;;;3.53;;
34248;SDS011;20508;50.834;3.160;2022-10-31T11:13:51;6.90;;;3.40;;
34248;SDS011;20508;50.834;3.160;2022-10-31T11:19:05;6.35;;;2.97;;
34248;SDS011;20508;50.834;3.160;2022-10-31T11:21:33;8.80;;;2.92;;
34248;SDS011;20508;50.834;3.160;2022-10-31T11:24:12;5.97;;;3.25;;
34248;SDS011;20508;50.834;3.160;2022-10-31T11:26:42;3.80;;;3.17;;
34248;SDS011;20508;50.834;3.160;2022-10-31T11:29:14;8.65;;;3.20;;
34248;SDS011;20508;50.834;3.160;2022-10-31T11:31:54;4.22;;;2.90;;
34248;SDS011;20508;50.834;3.160;2022-10-31T11:34:26;5.35;;;3.22;;
34248;SDS011;20508;50.834;3.160;2022-10-31T11:37:11;5.28;;;3.40;;
34248;SDS011;20508;50.834;3.160;2022-10-31T11:39:41;5.40;;;3.38;;
34248;SDS011;20508;50.834;3.160;2022-10-31T11:42:09;4.47;;;3.38;;
34248;SDS011;20508;50.834;3.160;2022-10-31T11:44:36;4.28;;;3.03;;
34248;SDS011;20508;50.834;3.160;2022-10-31T11:47:15;4.32;;;3.10;;
34248;SDS011;20508;50.834;3.160;2022-10-31T11:49:46;3.58;;;3.10;;
34248;SDS011;20508;50.834;3.160;2022-10-31T11:52:26;3.33;;;2.90;;
34248;SDS011;20508;50.834;3.160;2022-10-31T11:54:55;8.35;;;3.22;;
34248;SDS011;20508;50.834;3.160;2022-10-31T11:59:55;4.43;;;3.28;;
34248;SDS011;20508;50.834;3.160;2022-10-31T12:02:23;7.10;;;3.53;;
34248;SDS011;20508;50.834;3.160;2022-10-31T12:07:33;6.90;;;3.60;;
34248;SDS011;20508;50.834;3.160;2022-10-31T12:09:59;5.30;;;3.78;;
34248;SDS011;20508;50.834;3.160;2022-10-31T12:23:28;3.65;;;3.22;;
34248;SDS011;20508;50.834;3.160;2022-10-31T12:28:57;5.15;;;3.42;;
34248;SDS011;20508;50.834;3.160;2022-10-31T12:31:40;6.25;;;4.18;;
34248;SDS011;20508;50.834;3.160;2022-10-31T12:37:25;10.02;;;3.85;;
34248;SDS011;20508;50.834;3.160;2022-10-31T12:40:15;5.82;;;4.00;;
34248;SDS011;20508;50.834;3.160;2022-10-31T12:53:56;4.40;;;3.17;;
34248;SDS011;20508;50.834;3.160;2022-10-31T12:56:42;9.02;;;4.82;;
34248;SDS011;20508;50.834;3.160;2022-10-31T12:59:29;7.63;;;4.45;;
34248;SDS011;20508;50.834;3.160;2022-10-31T13:02:10;5.97;;;4.28;;
34248;SDS011;20508;50.834;3.160;2022-10-31T13:04:53;6.25;;;4.32;;
34248;SDS011;20508;50.834;3.160;2022-10-31T13:07:27;5.43;;;4.55;;
34248;SDS011;20508;50.834;3.160;2022-10-31T13:10:00;7.32;;;5.38;;
34248;SDS011;20508;50.834;3.160;2022-10-31T13:12:46;7.30;;;5.35;;
34248;SDS011;20508;50.834;3.160;2022-10-31T13:15:19;6.20;;;4.72;;
34248;SDS011;20508;50.834;3.160;2022-10-31T13:17:49;6.85;;;5.13;;
34248;SDS011;20508;50.834;3.160;2022-10-31T13:20:43;8.07;;;5.70;;
34248;SDS011;20508;50.834;3.160;2022-10-31T13:23:29;10.40;;;5.97;;
34248;SDS011;20508;50.834;3.160;2022-10-31T13:26:00;8.35;;;4.85;;
34248;SDS011;20508;50.834;3.160;2022-10-31T13:31:14;7.18;;;5.38;;
34248;SDS011;20508;50.834;3.160;2022-10-31T13:33:47;6.20;;;4.68;;
34248;SDS011;20508;50.834;3.160;2022-10-31T13:38:54;7.60;;;5.00;;
34248;SDS011;20508;50.834;3.160;2022-10-31T13:41:31;9.82;;;4.75;;
34248;SDS011;20508;50.834;3.160;2022-10-31T13:44:08;7.88;;;4.90;;
34248;SDS011;20508;50.834;3.160;2022-10-31T13:46:37;10.73;;;5.95;;
34248;SDS011;20508;50.834;3.160;2022-10-31T13:49:21;6.47;;;5.03;;
34248;SDS011;20508;50.834;3.160;2022-10-31T13:51:52;9.85;;;5.93;;
34248;SDS011;20508;50.834;3.160;2022-10-31T13:54:23;7.82;;;5.53;;
34248;SDS011;20508;50.834;3.160;2022-10-31T13:56:57;7.15;;;5.82;;
34248;SDS011;20508;50.834;3.160;2022-10-31T13:59:25;12.75;;;6.28;;
34248;SDS011;20508;50.834;3.160;2022-10-31T14:01:56;11.18;;;6.22;;
34248;SDS011;20508;50.834;3.160;2022-10-31T14:04:48;9.57;;;6.07;;
34248;SDS011;20508;50.834;3.160;2022-10-31T14:07:20;8.05;;;5.22;;
34248;SDS011;20508;50.834;3.160;2022-10-31T14:10:04;8.98;;;5.50;;
34248;SDS011;20508;50.834;3.160;2022-10-31T14:12:46;10.27;;;5.60;;
34248;SDS011;20508;50.834;3.160;2022-10-31T14:15:17;6.75;;;5.60;;
34248;SDS011;20508;50.834;3.160;2022-10-31T14:17:52;9.38;;;5.45;;
34248;SDS011;20508;50.834;3.160;2022-10-31T14:20:32;9.13;;;5.82;;
34248;SDS011;20508;50.834;3.160;2022-10-31T14:23:26;9.43;;;5.55;;
34248;SDS011;20508;50.834;3.160;2022-10-31T14:28:43;9.80;;;5.57;;
34248;SDS011;20508;50.834;3.160;2022-10-31T14:37:19;6.70;;;5.93;;
34248;SDS011;20508;50.834;3.160;2022-10-31T14:42:57;10.30;;;7.18;;
34248;SDS011;20508;50.834;3.160;2022-10-31T14:45:46;11.35;;;6.85;;
34248;SDS011;20508;50.834;3.160;2022-10-31T14:51:19;11.77;;;5.97;;
34248;SDS011;20508;50.834;3.160;2022-10-31T14:53:54;9.77;;;6.45;;
34248;SDS011;20508;50.834;3.160;2022-10-31T14:59:08;7.57;;;6.78;;
34248;SDS011;20508;50.834;3.160;2022-10-31T15:01:39;10.43;;;6.95;;
34248;SDS011;20508;50.834;3.160;2022-10-31T15:04:13;8.10;;;6.30;;
34248;SDS011;20508;50.834;3.160;2022-10-31T15:06:47;10.68;;;6.28;;
34248;SDS011;20508;50.834;3.160;2022-10-31T15:11:51;9.27;;;6.25;;
34248;SDS011;20508;50.834;3.160;2022-10-31T15:14:30;11.38;;;6.45;;
34248;SDS011;20508;50.834;3.160;2022-10-31T15:16:57;7.78;;;6.15;;
34248;SDS011;20508;50.834;3.160;2022-10-31T15:19:25;8.32;;;6.75;;
34248;SDS011;20508;50.834;3.160;2022-10-31T15:21:53;12.45;;;7.40;;
34248;SDS011;20508;50.834;3.160;2022-10-31T15:24:22;9.23;;;5.15;;
34248;SDS011;20508;50.834;3.160;2022-10-31T15:26:51;10.70;;;6.00;;
34248;SDS011;20508;50.834;3.160;2022-10-31T15:29:24;12.32;;;5.85;;
34248;SDS011;20508;50.834;3.160;2022-10-31T15:31:56;7.88;;;4.88;;
34248;SDS011;20508;50.834;3.160;2022-10-31T15:34:29;11.68;;;5.78;;
34248;SDS011;20508;50.834;3.160;2022-10-31T15:37:10;14.50;;;5.63;;
34248;SDS011;20508;50.834;3.160;2022-10-31T15:39:41;14.13;;;6.00;;
34248;SDS011;20508;50.834;3.160;2022-10-31T15:42:28;11.38;;;5.88;;
34248;SDS011;20508;50.834;3.160;2022-10-31T15:45:01;8.80;;;5.45;;
34248;SDS011;20508;50.834;3.160;2022-10-31T15:50:45;7.50;;;5.72;;
34248;SDS011;20508;50.834;3.160;2022-10-31T15:53:19;9.48;;;5.35;;
34248;SDS011;20508;50.834;3.160;2022-10-31T15:55:48;8.55;;;5.72;;
34248;SDS011;20508;50.834;3.160;2022-10-31T15:58:18;12.68;;;5.82;;
34248;SDS011;20508;50.834;3.160;2022-10-31T16:00:45;11.48;;;6.28;;
34248;SDS011;20508;50.834;3.160;2022-10-31T16:03:25;11.90;;;8.15;;
34248;SDS011;20508;50.834;3.160;2022-10-31T16:05:54;11.68;;;6.50;;
34248;SDS011;20508;50.834;3.160;2022-10-31T16:10:50;12.35;;;6.28;;
34248;SDS011;20508;50.834;3.160;2022-10-31T16:13:17;9.70;;;6.63;;
34248;SDS011;20508;50.834;3.160;2022-10-31T16:15:49;8.93;;;6.43;;
34248;SDS011;20508;50.834;3.160;2022-10-31T16:18:25;12.13;;;7.20;;
34248;SDS011;20508;50.834;3.160;2022-10-31T16:20:53;16.25;;;7.88;;
34248;SDS011;20508;50.834;3.160;2022-10-31T16:23:22;14.52;;;8.85;;
34248;SDS011;20508;50.834;3.160;2022-10-31T16:25:51;17.88;;;8.40;;
34248;SDS011;20508;50.834;3.160;2022-10-31T16:28:19;12.35;;;7.63;;
34248;SDS011;20508;50.834;3.160;2022-10-31T16:30:50;15.93;;;9.38;;
34248;SDS011;20508;50.834;3.160;2022-10-31T16:36:13;8.57;;;7.30;;
34248;SDS011;20508;50.834;3.160;2022-10-31T16:38:56;10.23;;;7.25;;
34248;SDS011;20508;50.834;3.160;2022-10-31T16:41:23;15.65;;;8.77;;
34248;SDS011;20508;50.834;3.160;2022-10-31T16:43:50;12.32;;;7.45;;
34248;SDS011;20508;50.834;3.160;2022-10-31T16:46:18;10.70;;;7.90;;
34248;SDS011;20508;50.834;3.160;2022-10-31T16:48:51;10.27;;;7.50;;
34248;SDS011;20508;50.834;3.160;2022-10-31T16:51:18;12.70;;;7.55;;
34248;SDS011;20508;50.834;3.160;2022-10-31T16:53:45;11.30;;;7.93;;
34248;SDS011;20508;50.834;3.160;2022-10-31T16:56:15;11.30;;;7.38;;
34248;SDS011;20508;50.834;3.160;2022-10-31T17:01:10;12.98;;;8.13;;
34248;SDS011;20508;50.834;3.160;2022-10-31T17:03:38;10.30;;;7.53;;
34248;SDS011;20508;50.834;3.160;2022-10-31T17:06:04;13.30;;;7.78;;
34248;SDS011;20508;50.834;3.160;2022-10-31T17:08:30;12.82;;;8.02;;
34248;SDS011;20508;50.834;3.160;2022-10-31T17:10:58;15.30;;;7.68;;
34248;SDS011;20508;50.834;3.160;2022-10-31T17:13:25;12.13;;;7.68;;
34248;SDS011;20508;50.834;3.160;2022-10-31T17:15:55;9.00;;;8.07;;